createdAt,value
2022-08-05T00:02:07.233Z,21.56
2022-08-05T00:04:10.758Z,21.53
2022-08-05T00:06:29.171Z,21.53
2022-08-05T00:08:36.429Z,21.50
2022-08-05T00:10:39.103Z,21.50
2022-08-05T00:12:56.150Z,21.48
2022-08-05T00:14:59.637Z,21.47
2022-08-05T00:17:22.476Z,21.45
2022-08-05T00:19:33.480Z,21.43
2022-08-05T00:21:43.251Z,21.40
2022-08-05T00:24:06.147Z,21.40
2022-08-05T00:26:10.743Z,21.38
2022-08-05T00:28:14.014Z,21.34
2022-08-05T00:30:16.654Z,21.31
2022-08-05T00:32:20.502Z,21.26
2022-08-05T00:34:56.351Z,21.21
2022-08-05T00:37:11.837Z,21.17
2022-08-05T00:39:14.291Z,21.13
2022-08-05T00:41:51.729Z,21.13
2022-08-05T00:43:53.764Z,21.10
2022-08-05T00:45:56.407Z,21.08
2022-08-05T00:48:05.164Z,21.10
2022-08-05T00:50:10.092Z,21.10
2022-08-05T00:52:12.764Z,21.10
2022-08-05T00:54:16.030Z,21.09
2022-08-05T00:56:22.813Z,21.12
2022-08-05T00:58:27.445Z,21.14
2022-08-05T01:00:31.637Z,21.08
2022-08-05T01:02:34.228Z,21.11
2022-08-05T01:04:36.867Z,21.13
2022-08-05T01:06:48.683Z,21.10
2022-08-05T01:08:54.098Z,21.13
2022-08-05T01:11:14.850Z,21.18
2022-08-05T01:13:58.525Z,21.13
2022-08-05T01:16:05.203Z,21.14
2022-08-05T01:18:15.244Z,21.14
2022-08-05T01:20:37.067Z,21.17
2022-08-05T01:23:34.984Z,21.14
2022-08-05T01:26:15.387Z,21.12
2022-08-05T01:28:42.552Z,21.14
2022-08-05T01:30:55.356Z,21.10
2022-08-05T01:33:00.710Z,21.18
2022-08-05T01:35:10.654Z,21.24
2022-08-05T01:37:25.222Z,21.28
2022-08-05T01:39:46.453Z,21.33
2022-08-05T01:41:52.189Z,21.36
2022-08-05T01:43:57.026Z,21.38
2022-08-05T01:46:07.262Z,21.41
2022-08-05T01:48:20.722Z,21.43
2022-08-05T01:50:32.792Z,21.47
2022-08-05T01:52:38.552Z,21.49
2022-08-05T01:54:48.722Z,21.50
2022-08-05T01:58:13.193Z,21.56
2022-08-05T01:59:23.345Z,21.56
2022-08-05T02:01:28.157Z,21.53
2022-08-05T02:03:40.782Z,21.57
2022-08-05T02:05:45.109Z,21.59
2022-08-05T02:07:56.323Z,21.60
2022-08-05T02:10:05.862Z,21.60
2022-08-05T02:12:27.215Z,21.63
2022-08-05T02:14:34.455Z,21.64
2022-08-05T02:16:54.842Z,21.67
2022-08-05T02:19:34.200Z,21.69
2022-08-05T02:21:46.757Z,21.73
2022-08-05T02:23:56.813Z,21.76
2022-08-05T02:26:03.123Z,21.80
2022-08-05T02:28:08.923Z,21.83
2022-08-05T02:30:12.930Z,21.89
2022-08-05T02:32:24.192Z,21.91
2022-08-05T02:34:35.189Z,21.93
2022-08-05T02:36:59.939Z,21.98
2022-08-05T02:39:10.463Z,21.98
2022-08-05T02:41:17.862Z,22.00
2022-08-05T02:43:23.037Z,22.04
2022-08-05T02:45:26.987Z,22.11
2022-08-05T02:48:06.670Z,22.12
2022-08-05T02:49:56.240Z,22.13
2022-08-05T02:52:02.735Z,22.13
2022-08-05T02:54:07.132Z,22.12
2022-08-05T02:56:16.111Z,22.16
2022-08-05T02:58:23.205Z,22.18
2022-08-05T03:00:30.735Z,22.20
2022-08-05T03:02:39.685Z,22.22
2022-08-05T03:04:43.915Z,22.24
2022-08-05T03:06:57.087Z,22.28
2022-08-05T03:09:02.057Z,22.26
2022-08-05T03:11:57.447Z,22.28
2022-08-05T03:13:51.824Z,22.32
2022-08-05T03:16:03.574Z,22.40
2022-08-05T03:18:06.433Z,22.45
2022-08-05T03:20:10.888Z,22.53
2022-08-05T03:22:19.017Z,22.58
2022-08-05T03:24:35.601Z,22.63
2022-08-05T03:26:38.504Z,22.71
2022-08-05T03:28:41.156Z,22.82
2022-08-05T03:30:44.784Z,22.91
2022-08-05T03:32:49.978Z,23.00
2022-08-05T03:34:52.731Z,23.14
2022-08-05T03:36:55.377Z,23.22
2022-08-05T03:38:58.843Z,23.32
2022-08-05T03:41:08.422Z,23.42
2022-08-05T03:43:58.531Z,23.47
2022-08-05T03:45:57.254Z,23.54
2022-08-05T03:47:59.435Z,23.57
2022-08-05T03:50:02.659Z,23.62
2022-08-05T03:52:49.192Z,23.64
2022-08-05T03:55:00.468Z,23.72
2022-08-05T03:57:29.199Z,23.70
2022-08-05T03:59:54.809Z,23.73
2022-08-05T04:02:02.632Z,23.76
2022-08-05T04:04:09.960Z,23.78
2022-08-05T04:06:13.726Z,23.83
2022-08-05T04:08:35.141Z,23.79
2022-08-05T04:10:39.696Z,23.82
2022-08-05T04:14:45.180Z,23.95
2022-08-05T04:16:48.435Z,23.98
2022-08-05T04:18:54.034Z,24.02
2022-08-05T04:20:58.429Z,24.06
2022-08-05T04:23:01.165Z,24.13
2022-08-05T04:25:04.057Z,24.16
2022-08-05T04:27:06.723Z,24.15
2022-08-05T04:29:10.274Z,24.18
2022-08-05T04:31:12.960Z,24.22
2022-08-05T04:33:16.538Z,24.28
2022-08-05T04:36:15.604Z,24.36
2022-08-05T04:38:06.593Z,24.38
2022-08-05T04:40:10.528Z,24.51
2022-08-05T04:42:13.415Z,24.57
2022-08-05T04:44:29.559Z,24.63
2022-08-05T04:46:33.133Z,24.64
2022-08-05T04:48:35.676Z,24.79
2022-08-05T04:51:01.615Z,24.79
2022-08-05T04:53:05.674Z,24.86
2022-08-05T04:55:14.589Z,24.94
2022-08-05T04:57:17.938Z,25.01
2022-08-05T04:59:37.412Z,25.07
2022-08-05T05:02:35.306Z,25.08
2022-08-05T05:04:05.501Z,25.16
2022-08-05T05:06:39.450Z,25.25
2022-08-05T05:08:37.267Z,25.28
2022-08-05T05:10:56.126Z,25.34
2022-08-05T05:12:59.300Z,25.40
2022-08-05T05:15:06.076Z,25.44
2022-08-05T05:17:13.521Z,25.51
2022-08-05T05:19:19.329Z,25.56
2022-08-05T05:21:27.211Z,25.64
2022-08-05T05:23:39.385Z,25.71
2022-08-05T05:25:52.853Z,25.78
2022-08-05T05:27:56.234Z,25.87
2022-08-05T05:30:04.927Z,25.89
2022-08-05T05:32:08.119Z,25.95
2022-08-05T05:34:19.029Z,26.04
2022-08-05T05:36:28.527Z,26.06
2022-08-05T05:38:32.292Z,26.13
2022-08-05T05:40:35.125Z,26.19
2022-08-05T05:42:38.976Z,26.24
2022-08-05T05:44:43.146Z,26.29
2022-08-05T05:46:48.772Z,26.33
2022-08-05T05:48:53.777Z,26.37
2022-08-05T05:50:56.302Z,26.43
2022-08-05T05:52:58.899Z,26.49
2022-08-05T05:55:07.450Z,26.56
2022-08-05T05:57:19.295Z,26.66
2022-08-05T05:59:22.189Z,26.70
2022-08-05T06:01:25.386Z,26.74
2022-08-05T06:04:00.436Z,26.69
2022-08-05T06:06:06.879Z,26.67
2022-08-05T06:08:10.894Z,26.66
2022-08-05T06:10:13.971Z,26.71
2022-08-05T06:12:18.279Z,26.78
2022-08-05T06:14:22.314Z,26.85
2022-08-05T06:16:33.009Z,26.91
2022-08-05T06:18:39.940Z,26.95
2022-08-05T06:20:42.630Z,26.98
2022-08-05T06:22:50.640Z,27.01
2022-08-05T06:24:53.421Z,27.08
2022-08-05T06:26:56.292Z,27.10
2022-08-05T06:28:58.981Z,27.13
2022-08-05T06:31:10.875Z,27.14
2022-08-05T06:33:19.058Z,27.24
2022-08-05T06:36:07.777Z,27.24
2022-08-05T06:37:58.159Z,27.26
2022-08-05T06:40:03.186Z,27.32
2022-08-05T06:42:07.019Z,27.38
2022-08-05T06:44:09.970Z,27.43
2022-08-05T06:46:13.071Z,27.41
2022-08-05T06:48:52.960Z,27.43
2022-08-05T06:50:38.802Z,27.44
2022-08-05T06:52:41.813Z,27.50
2022-08-05T06:55:02.436Z,27.57
2022-08-05T06:57:58.097Z,27.64
2022-08-05T06:59:29.431Z,27.65
2022-08-05T07:01:42.664Z,27.74
2022-08-05T07:03:46.096Z,27.74
2022-08-05T07:05:49.011Z,27.76
2022-08-05T07:07:52.731Z,27.82
2022-08-05T07:09:58.263Z,27.84
2022-08-05T07:12:01.594Z,27.90
2022-08-05T07:14:28.906Z,27.99
2022-08-05T07:18:00.162Z,28.06
2022-08-05T07:19:16.034Z,28.14
2022-08-05T07:21:59.198Z,28.17
2022-08-05T07:24:01.221Z,28.22
2022-08-05T07:26:06.122Z,28.26
2022-08-05T07:28:11.790Z,28.31
2022-08-05T07:30:28.171Z,28.36
2022-08-05T07:32:39.478Z,28.41
2022-08-05T07:34:42.613Z,28.43
2022-08-05T07:36:45.291Z,28.51
2022-08-05T07:38:47.877Z,28.56
2022-08-05T07:40:55.540Z,28.56
2022-08-05T07:43:13.810Z,28.54
2022-08-05T07:45:56.812Z,28.53
2022-08-05T07:47:45.826Z,28.60
2022-08-05T07:49:54.543Z,28.67
2022-08-05T07:51:57.470Z,28.74
2022-08-05T07:54:02.286Z,28.74
2022-08-05T07:56:38.968Z,28.82
2022-08-05T07:58:54.627Z,28.83
2022-08-05T08:00:51.087Z,28.90
2022-08-05T08:03:13.811Z,28.99
2022-08-05T08:05:17.413Z,29.13
2022-08-05T08:07:22.763Z,29.12
2022-08-05T08:09:26.011Z,29.08
2022-08-05T08:11:47.498Z,29.22
2022-08-05T08:14:00.848Z,29.25
2022-08-05T08:16:50.014Z,29.27
2022-08-05T08:18:28.054Z,29.35
2022-08-05T08:20:43.820Z,29.38
2022-08-05T08:22:57.700Z,29.37
2022-08-05T08:25:03.509Z,29.17
2022-08-05T08:27:07.696Z,29.01
2022-08-05T08:29:45.165Z,29.13
2022-08-05T08:31:33.995Z,29.23
2022-08-05T08:33:37.886Z,29.33
2022-08-05T08:35:53.050Z,29.46
2022-08-05T08:38:07.520Z,29.56
2022-08-05T08:40:11.941Z,29.68
2022-08-05T08:42:46.802Z,29.75
2022-08-05T08:45:16.263Z,29.84
2022-08-05T08:47:47.454Z,29.88
2022-08-05T08:50:12.822Z,29.92
2022-08-05T08:52:14.878Z,30.02
2022-08-05T08:54:19.964Z,30.11
2022-08-05T08:56:27.351Z,30.21
2022-08-05T08:58:43.285Z,30.29
2022-08-05T09:00:49.075Z,30.24
2022-08-05T09:02:54.568Z,30.32
2022-08-05T09:05:16.920Z,30.39
2022-08-05T09:07:28.374Z,30.50
2022-08-05T09:09:35.603Z,30.57
2022-08-05T09:11:51.276Z,30.56
2022-08-05T09:14:09.345Z,30.49
2022-08-05T09:16:20.305Z,30.23
2022-08-05T09:18:23.194Z,30.04
2022-08-05T09:20:37.736Z,29.96
2022-08-05T09:23:05.159Z,30.16
2022-08-05T09:25:14.012Z,30.33
2022-08-05T09:28:04.418Z,30.46
2022-08-05T09:30:02.227Z,30.48
2022-08-05T09:32:41.545Z,30.40
2022-08-05T09:34:55.151Z,30.53
2022-08-05T09:36:59.799Z,30.56
2022-08-05T09:39:18.125Z,30.34
2022-08-05T09:41:25.256Z,30.10
2022-08-05T09:43:41.947Z,29.93
2022-08-05T09:46:07.277Z,29.87
2022-08-05T09:48:28.453Z,29.71
2022-08-05T09:50:38.901Z,29.58
2022-08-05T09:52:52.919Z,29.43
2022-08-05T09:55:57.383Z,29.27
2022-08-05T09:57:44.066Z,29.15
2022-08-05T09:59:48.264Z,29.04
2022-08-05T10:01:57.890Z,29.11
2022-08-05T10:04:12.483Z,29.37
2022-08-05T10:06:21.268Z,29.69
2022-08-05T10:08:37.726Z,29.93
2022-08-05T10:10:44.786Z,29.93
2022-08-05T10:12:56.620Z,29.90
2022-08-05T10:15:21.667Z,29.91
2022-08-05T10:17:37.827Z,29.83
2022-08-05T10:20:03.577Z,29.67
2022-08-05T10:22:09.123Z,29.56
2022-08-05T10:24:20.510Z,29.38
2022-08-05T10:26:32.619Z,29.50
2022-08-05T10:28:36.834Z,29.56
2022-08-05T10:32:46.881Z,29.62
2022-08-05T10:33:03.913Z,29.80
2022-08-05T10:35:07.294Z,30.11
2022-08-05T10:37:13.297Z,30.48
2022-08-05T10:39:59.180Z,30.83
2022-08-05T10:42:09.232Z,30.92
2022-08-05T10:44:18.402Z,30.81
2022-08-05T10:46:24.266Z,30.82
2022-08-05T10:48:58.164Z,30.68
2022-08-05T10:51:22.037Z,30.59
2022-08-05T10:53:55.620Z,30.79
2022-08-05T10:56:21.052Z,31.04
2022-08-05T10:58:47.759Z,31.30
2022-08-05T11:00:55.073Z,31.59
2022-08-05T11:03:22.991Z,31.80
2022-08-05T11:05:29.319Z,31.96
2022-08-05T11:08:01.240Z,32.28
2022-08-05T11:10:04.035Z,32.58
2022-08-05T11:12:37.298Z,32.68
2022-08-05T11:15:00.970Z,32.74
2022-08-05T11:17:57.014Z,32.99
2022-08-05T11:20:11.257Z,33.21
2022-08-05T11:22:42.255Z,33.33
2022-08-05T11:24:50.735Z,33.51
2022-08-05T11:27:51.206Z,33.67
2022-08-05T11:30:00.194Z,33.75
2022-08-05T11:32:28.622Z,33.77
2022-08-05T11:34:50.984Z,33.85
2022-08-05T11:36:57.183Z,33.89
2022-08-05T11:39:00.237Z,33.98
2022-08-05T11:41:36.800Z,34.12
2022-08-05T11:44:04.601Z,34.18
2022-08-05T11:46:14.968Z,33.97
2022-08-05T11:48:15.210Z,33.83
2022-08-05T11:50:18.335Z,34.07
2022-08-05T11:52:29.068Z,34.42
2022-08-05T11:54:38.233Z,34.67
2022-08-05T11:56:50.461Z,34.79
2022-08-05T11:58:54.606Z,35.04
2022-08-05T12:01:08.482Z,35.29
2022-08-05T12:03:23.949Z,35.61
2022-08-05T12:05:39.757Z,35.76
2022-08-05T12:08:03.577Z,35.88
2022-08-05T12:10:09.680Z,36.15
2022-08-05T12:12:20.999Z,36.47
2022-08-05T12:14:25.574Z,36.67
2022-08-05T12:16:38.386Z,36.84
2022-08-05T12:18:42.739Z,36.83
2022-08-05T12:20:54.819Z,36.84
2022-08-05T12:23:11.436Z,37.07
2022-08-05T12:25:14.514Z,37.25
2022-08-05T12:27:26.834Z,37.43
2022-08-05T12:29:37.936Z,37.39
2022-08-05T12:31:53.502Z,37.30
2022-08-05T12:33:57.489Z,37.32
2022-08-05T12:36:02.702Z,36.30
2022-08-05T12:38:07.340Z,35.92
2022-08-05T12:40:26.554Z,35.78
2022-08-05T12:42:31.576Z,35.50
2022-08-05T12:44:34.511Z,35.60
2022-08-05T12:46:39.102Z,35.79
2022-08-05T12:48:41.872Z,35.54
2022-08-05T12:52:10.273Z,35.42
2022-08-05T12:53:55.747Z,35.13
2022-08-05T12:55:58.565Z,35.07
2022-08-05T12:58:52.741Z,35.12
2022-08-05T13:02:02.758Z,35.00
2022-08-05T13:02:55.490Z,35.19
2022-08-05T13:04:58.698Z,35.36
2022-08-05T13:07:04.782Z,35.95
2022-08-05T13:09:14.356Z,36.54
2022-08-05T13:12:01.033Z,37.08
2022-08-05T13:14:05.273Z,37.61
2022-08-05T13:16:16.668Z,38.03
2022-08-05T13:18:20.533Z,38.13
2022-08-05T13:20:25.348Z,38.07
2022-08-05T13:22:30.944Z,37.88
2022-08-05T13:24:51.377Z,37.91
2022-08-05T13:26:56.405Z,37.94
2022-08-05T13:29:00.685Z,38.03
2022-08-05T13:31:14.040Z,38.30
2022-08-05T13:34:22.451Z,38.58
2022-08-05T13:35:47.625Z,38.79
2022-08-05T13:37:55.343Z,38.82
2022-08-05T13:40:15.115Z,38.96
2022-08-05T13:42:24.990Z,38.57
2022-08-05T13:44:27.709Z,38.14
2022-08-05T13:46:51.013Z,37.68
2022-08-05T13:48:57.664Z,37.18
2022-08-05T13:51:10.702Z,36.94
2022-08-05T13:53:15.789Z,36.77
2022-08-05T13:55:41.575Z,36.56
2022-08-05T13:57:50.620Z,36.51
2022-08-05T13:59:57.184Z,36.48
2022-08-05T14:02:01.029Z,36.40
2022-08-05T14:04:26.513Z,36.17
2022-08-05T14:06:29.353Z,35.90
2022-08-05T14:08:32.991Z,35.75
2022-08-05T14:10:37.549Z,35.65
2022-08-05T14:12:42.957Z,35.52
2022-08-05T14:14:51.351Z,35.21
2022-08-05T14:16:55.369Z,34.89
2022-08-05T14:19:04.421Z,34.80
2022-08-05T14:22:07.117Z,34.77
2022-08-05T14:23:36.297Z,34.69
2022-08-05T14:25:45.067Z,34.94
2022-08-05T14:27:49.611Z,34.91
2022-08-05T14:29:52.848Z,34.70
2022-08-05T14:32:13.764Z,34.56
2022-08-05T14:34:17.970Z,34.44
2022-08-05T14:36:26.459Z,34.34
2022-08-05T14:38:34.434Z,34.14
2022-08-05T14:40:38.897Z,34.01
2022-08-05T14:42:42.222Z,34.03
2022-08-05T14:44:46.004Z,34.15
2022-08-05T14:46:48.547Z,34.22
2022-08-05T14:48:51.301Z,34.53
2022-08-05T14:50:55.587Z,34.97
2022-08-05T14:52:59.946Z,35.35
2022-08-05T14:55:02.937Z,35.69
2022-08-05T14:57:09.838Z,35.91
2022-08-05T14:59:16.603Z,36.05
2022-08-05T15:01:24.217Z,36.01
2022-08-05T15:03:42.471Z,36.16
2022-08-05T15:06:07.326Z,36.32
2022-08-05T15:08:18.001Z,36.47
2022-08-05T15:10:34.242Z,36.55
2022-08-05T15:12:57.660Z,36.51
2022-08-05T15:14:59.815Z,36.44
2022-08-05T15:17:03.757Z,36.36
2022-08-05T15:19:06.654Z,36.21
2022-08-05T15:21:20.950Z,36.14
2022-08-05T15:23:23.877Z,36.01
2022-08-05T15:25:50.954Z,35.87
2022-08-05T15:27:52.326Z,35.54
2022-08-05T15:29:56.847Z,35.04
2022-08-05T15:32:03.372Z,34.53
2022-08-05T15:34:31.506Z,34.09
2022-08-05T15:36:31.234Z,33.61
2022-08-05T15:38:41.763Z,33.41
2022-08-05T15:41:20.324Z,33.20
2022-08-05T15:43:10.812Z,32.94
2022-08-05T15:45:23.174Z,32.74
2022-08-05T15:47:43.054Z,32.59
2022-08-05T15:49:53.755Z,32.46
2022-08-05T15:52:04.023Z,32.34
2022-08-05T15:54:16.768Z,32.25
2022-08-05T15:56:22.991Z,32.16
2022-08-05T15:58:25.629Z,32.04
2022-08-05T16:00:50.499Z,31.95
2022-08-05T16:02:51.885Z,31.80
2022-08-05T16:04:55.245Z,31.78
2022-08-05T16:06:57.752Z,31.69
2022-08-05T16:09:00.775Z,31.59
2022-08-05T16:11:04.530Z,31.50
2022-08-05T16:13:07.079Z,31.37
2022-08-05T16:15:10.778Z,31.27
2022-08-05T16:17:21.032Z,31.13
2022-08-05T16:20:02.822Z,30.97
2022-08-05T16:22:01.059Z,30.91
2022-08-05T16:24:06.484Z,30.81
2022-08-05T16:26:15.535Z,30.74
2022-08-05T16:28:19.744Z,30.64
2022-08-05T16:30:28.586Z,30.57
2022-08-05T16:32:32.140Z,30.55
2022-08-05T16:34:34.846Z,30.53
2022-08-05T16:36:37.355Z,30.49
2022-08-05T16:38:45.381Z,30.40
2022-08-05T16:41:01.400Z,30.26
2022-08-05T16:43:04.687Z,30.14
2022-08-05T16:46:04.636Z,30.04
2022-08-05T16:47:36.188Z,29.90
2022-08-05T16:49:43.472Z,29.77
2022-08-05T16:51:51.063Z,29.66
2022-08-05T16:54:03.141Z,29.57
2022-08-05T16:56:11.963Z,29.48
2022-08-05T16:58:14.867Z,29.45
2022-08-05T17:00:34.661Z,29.32
2022-08-05T17:02:37.957Z,29.14
2022-08-05T17:04:40.774Z,29.00
2022-08-05T17:06:43.330Z,28.94
2022-08-05T17:08:55.728Z,28.88
2022-08-05T17:10:58.300Z,28.82
2022-08-05T17:13:01.511Z,28.76
2022-08-05T17:15:07.649Z,28.70
2022-08-05T17:17:14.827Z,28.64
2022-08-05T17:19:17.997Z,28.60
2022-08-05T17:21:20.578Z,28.55
2022-08-05T17:24:06.008Z,28.52
2022-08-05T17:25:48.900Z,28.48
2022-08-05T17:27:54.135Z,28.41
2022-08-05T17:30:00.866Z,28.36
2022-08-05T17:32:08.278Z,28.25
2022-08-05T17:34:11.145Z,28.10
2022-08-05T17:36:32.534Z,28.04
2022-08-05T17:38:37.648Z,27.94
2022-08-05T17:40:42.476Z,27.89
2022-08-05T17:42:50.987Z,27.87
2022-08-05T17:44:54.784Z,27.82
2022-08-05T17:46:57.621Z,27.77
2022-08-05T17:49:00.169Z,27.70
2022-08-05T17:51:03.246Z,27.69
2022-08-05T17:53:11.945Z,27.69
2022-08-05T17:55:14.549Z,27.66
2022-08-05T17:57:18.258Z,27.64
2022-08-05T17:59:22.751Z,27.64
2022-08-05T18:01:25.940Z,27.57
2022-08-05T18:03:58.915Z,27.44
2022-08-05T18:05:53.615Z,27.37
2022-08-05T18:07:57.028Z,27.27
2022-08-05T18:10:02.066Z,27.25
2022-08-05T18:12:13.028Z,27.24
2022-08-05T18:14:25.042Z,27.21
2022-08-05T18:16:27.717Z,27.20
2022-08-05T18:18:30.497Z,27.21
2022-08-05T18:20:33.140Z,27.16
2022-08-05T18:22:46.208Z,27.14
2022-08-05T18:24:57.357Z,27.08
2022-08-05T18:26:59.966Z,27.07
2022-08-05T18:29:02.443Z,27.04
2022-08-05T18:31:06.327Z,26.99
2022-08-05T18:33:13.840Z,26.95
2022-08-05T18:35:17.313Z,26.95
2022-08-05T18:37:34.229Z,26.93
2022-08-05T18:40:34.546Z,26.88
2022-08-05T18:42:10.917Z,26.85
2022-08-05T18:44:14.036Z,26.83
2022-08-05T18:46:37.162Z,26.83
2022-08-05T18:48:43.834Z,26.86
2022-08-05T18:52:02.884Z,26.88
2022-08-05T18:53:29.647Z,26.84
2022-08-05T18:55:37.262Z,26.77
2022-08-05T18:57:49.894Z,26.81
2022-08-05T19:00:01.395Z,26.77
2022-08-05T19:02:26.737Z,26.74
2022-08-05T19:04:30.739Z,26.68
2022-08-05T19:06:44.696Z,26.69
2022-08-05T19:08:48.331Z,26.69
2022-08-05T19:10:51.092Z,26.66
2022-08-05T19:12:53.913Z,26.62
2022-08-05T19:14:59.785Z,26.59
2022-08-05T19:17:06.347Z,26.51
2022-08-05T19:19:10.264Z,26.48
2022-08-05T19:21:16.001Z,26.44
2022-08-05T19:24:05.771Z,26.41
2022-08-05T19:25:43.541Z,26.38
2022-08-05T19:27:49.855Z,26.34
2022-08-05T19:29:56.667Z,26.30
2022-08-05T19:32:01.622Z,26.23
2022-08-05T19:34:04.380Z,26.19
2022-08-05T19:36:09.057Z,26.14
2022-08-05T19:38:11.795Z,26.10
2022-08-05T19:40:17.166Z,26.06
2022-08-05T19:42:35.780Z,26.02
2022-08-05T19:44:45.053Z,25.97
2022-08-05T19:46:50.151Z,25.95
2022-08-05T19:48:53.692Z,25.92
2022-08-05T19:50:57.877Z,25.87
2022-08-05T19:53:09.666Z,25.82
2022-08-05T19:56:14.765Z,25.74
2022-08-05T19:57:49.257Z,25.65
2022-08-05T20:00:02.544Z,25.57
2022-08-05T20:02:07.400Z,25.53
2022-08-05T20:04:09.955Z,25.49
2022-08-05T20:06:16.035Z,25.45
2022-08-05T20:08:31.596Z,25.43
2022-08-05T20:10:34.200Z,25.45
2022-08-05T20:12:39.398Z,25.46
2022-08-05T20:14:52.713Z,25.43
2022-08-05T20:16:56.162Z,25.42
2022-08-05T20:18:59.274Z,25.34
2022-08-05T20:21:06.810Z,25.40
2022-08-05T20:23:09.565Z,25.39
2022-08-05T20:25:15.045Z,25.40
2022-08-05T20:27:18.323Z,25.39
2022-08-05T20:29:27.307Z,25.35
2022-08-05T20:31:42.086Z,25.33
2022-08-05T20:33:53.533Z,25.30
2022-08-05T20:35:56.762Z,25.28
2022-08-05T20:38:06.385Z,25.25
2022-08-05T20:40:11.322Z,25.21
2022-08-05T20:42:13.860Z,25.17
2022-08-05T20:44:29.789Z,25.10
2022-08-05T20:46:33.692Z,25.05
2022-08-05T20:48:37.127Z,25.02
2022-08-05T20:50:45.250Z,24.98
2022-08-05T20:52:48.181Z,24.94
2022-08-05T20:54:59.518Z,24.87
2022-08-05T20:57:24.664Z,24.81
2022-08-05T21:00:10.999Z,24.74
2022-08-05T21:02:02.852Z,24.66
2022-08-05T21:04:12.484Z,24.62
2022-08-05T21:06:28.555Z,24.58
2022-08-05T21:08:42.346Z,24.51
2022-08-05T21:10:48.823Z,24.46
2022-08-05T21:13:08.935Z,24.44
2022-08-05T21:15:17.010Z,24.40
2022-08-05T21:17:19.979Z,24.35
2022-08-05T21:19:24.045Z,24.29
2022-08-05T21:21:26.533Z,24.23
2022-08-05T21:23:42.408Z,24.15
2022-08-05T21:25:45.290Z,24.12
2022-08-05T21:27:47.835Z,24.08
2022-08-05T21:29:56.411Z,24.08
2022-08-05T21:31:59.129Z,24.05
2022-08-05T21:34:01.630Z,24.01
2022-08-05T21:36:04.685Z,24.00
2022-08-05T21:38:07.552Z,23.97
2022-08-05T21:40:13.681Z,23.94
2022-08-05T21:42:41.221Z,23.91
2022-08-05T21:44:39.436Z,23.89
2022-08-05T21:46:41.942Z,23.87
2022-08-05T21:48:45.524Z,23.84
2022-08-05T21:50:53.011Z,23.83
2022-08-05T21:52:59.099Z,23.79
2022-08-05T21:55:10.940Z,23.76
2022-08-05T21:57:31.384Z,23.73
2022-08-05T22:00:01.599Z,23.71
2022-08-05T22:01:57.654Z,23.69
2022-08-05T22:04:00.206Z,23.64
2022-08-05T22:06:02.763Z,23.62
2022-08-05T22:08:07.859Z,23.59
2022-08-05T22:10:27.319Z,23.55
2022-08-05T22:12:32.216Z,23.53
2022-08-05T22:14:37.742Z,23.52
2022-08-05T22:16:51.125Z,23.48
2022-08-05T22:18:58.790Z,23.48
2022-08-05T22:21:04.086Z,23.47
2022-08-05T22:24:03.061Z,23.48
2022-08-05T22:26:10.872Z,23.45
2022-08-05T22:28:14.346Z,23.45
2022-08-05T22:30:20.778Z,23.45
2022-08-05T22:32:23.641Z,23.45
2022-08-05T22:34:28.790Z,23.42
2022-08-05T22:36:31.860Z,23.43
2022-08-05T22:38:34.432Z,23.43
2022-08-05T22:40:37.101Z,23.42
2022-08-05T22:42:41.081Z,23.43
2022-08-05T22:44:48.523Z,23.42
2022-08-05T22:46:58.193Z,23.40
2022-08-05T22:49:01.174Z,23.41
2022-08-05T22:51:07.083Z,23.40
2022-08-05T22:53:10.524Z,23.37
2022-08-05T22:55:21.434Z,23.36
2022-08-05T22:57:24.256Z,23.35
2022-08-05T22:59:43.569Z,23.33
2022-08-05T23:02:04.480Z,23.31
2022-08-05T23:04:08.929Z,23.30
2022-08-05T23:06:11.493Z,23.30
2022-08-05T23:08:14.296Z,23.25
2022-08-05T23:10:19.948Z,23.28
2022-08-05T23:12:24.444Z,23.29
2022-08-05T23:14:32.300Z,23.29
2022-08-05T23:16:53.984Z,23.29
2022-08-05T23:18:56.705Z,23.27
2022-08-05T23:21:00.619Z,23.25
2022-08-05T23:23:03.619Z,23.24
2022-08-05T23:25:09.193Z,23.25
2022-08-05T23:27:14.893Z,23.24
2022-08-05T23:29:17.787Z,23.24
2022-08-05T23:31:22.007Z,23.26
2022-08-05T23:33:26.563Z,23.28
2022-08-05T23:35:48.288Z,23.30
2022-08-05T23:37:52.088Z,23.31
2022-08-05T23:39:55.739Z,23.32
2022-08-05T23:41:58.278Z,23.31
2022-08-05T23:44:06.522Z,23.33
2022-08-05T23:46:19.650Z,23.27
2022-08-05T23:48:23.016Z,23.23
2022-08-05T23:50:28.945Z,23.24
2022-08-05T23:52:35.846Z,23.22
2022-08-05T23:54:38.909Z,23.21
2022-08-05T23:56:41.575Z,23.21
2022-08-05T23:58:44.828Z,23.24
